sensor_id;sensor_type;location;lat;lon;timestamp;P1;durP1;ratioP1;P2;durP2;ratioP2
23260;SDS011;11799;47.740;-3.390;2023-08-17T00:00:24;2.47;;;1.23;;
23260;SDS011;11799;47.740;-3.390;2023-08-17T00:02:50;2.70;;;1.38;;
23260;SDS011;11799;47.740;-3.390;2023-08-17T00:05:16;1.48;;;1.38;;
23260;SDS011;11799;47.740;-3.390;2023-08-17T00:07:41;2.95;;;1.30;;
23260;SDS011;11799;47.740;-3.390;2023-08-17T00:10:07;1.38;;;1.20;;
23260;SDS011;11799;47.740;-3.390;2023-08-17T00:12:33;2.85;;;1.50;;
23260;SDS011;11799;47.740;-3.390;2023-08-17T00:14:58;2.35;;;1.40;;
23260;SDS011;11799;47.740;-3.390;2023-08-17T00:17:24;4.75;;;1.40;;
23260;SDS011;11799;47.740;-3.390;2023-08-17T00:19:49;2.38;;;1.20;;
23260;SDS011;11799;47.740;-3.390;2023-08-17T00:22:15;2.75;;;1.35;;
23260;SDS011;11799;47.740;-3.390;2023-08-17T00:24:41;2.95;;;1.50;;
23260;SDS011;11799;47.740;-3.390;2023-08-17T00:27:09;5.43;;;1.35;;
23260;SDS011;11799;47.740;-3.390;2023-08-17T00:29:35;1.83;;;1.35;;
23260;SDS011;11799;47.740;-3.390;2023-08-17T00:32:01;2.08;;;1.33;;
23260;SDS011;11799;47.740;-3.390;2023-08-17T00:34:27;2.05;;;1.30;;
23260;SDS011;11799;47.740;-3.390;2023-08-17T00:36:53;1.90;;;1.40;;
23260;SDS011;11799;47.740;-3.390;2023-08-17T00:39:18;3.28;;;1.38;;
23260;SDS011;11799;47.740;-3.390;2023-08-17T00:41:45;4.20;;;1.70;;
23260;SDS011;11799;47.740;-3.390;2023-08-17T00:44:12;2.30;;;1.40;;
23260;SDS011;11799;47.740;-3.390;2023-08-17T00:46:38;4.22;;;1.48;;
23260;SDS011;11799;47.740;-3.390;2023-08-17T00:49:04;3.35;;;1.60;;
23260;SDS011;11799;47.740;-3.390;2023-08-17T00:51:30;1.35;;;1.20;;
23260;SDS011;11799;47.740;-3.390;2023-08-17T00:53:58;2.60;;;1.27;;
23260;SDS011;11799;47.740;-3.390;2023-08-17T00:56:25;2.33;;;1.40;;
23260;SDS011;11799;47.740;-3.390;2023-08-17T00:58:51;3.80;;;1.65;;
23260;SDS011;11799;47.740;-3.390;2023-08-17T01:01:19;4.13;;;1.60;;
23260;SDS011;11799;47.740;-3.390;2023-08-17T01:03:45;1.98;;;1.48;;
23260;SDS011;11799;47.740;-3.390;2023-08-17T01:06:12;3.25;;;1.50;;
23260;SDS011;11799;47.740;-3.390;2023-08-17T01:08:38;3.55;;;1.70;;
23260;SDS011;11799;47.740;-3.390;2023-08-17T01:13:57;3.33;;;1.67;;
23260;SDS011;11799;47.740;-3.390;2023-08-17T01:16:27;1.65;;;1.42;;
23260;SDS011;11799;47.740;-3.390;2023-08-17T01:18:58;2.70;;;1.70;;
23260;SDS011;11799;47.740;-3.390;2023-08-17T01:21:29;3.35;;;1.50;;
23260;SDS011;11799;47.740;-3.390;2023-08-17T01:24:03;2.00;;;1.60;;
23260;SDS011;11799;47.740;-3.390;2023-08-17T01:26:30;2.33;;;1.80;;
23260;SDS011;11799;47.740;-3.390;2023-08-17T01:28:55;2.70;;;1.52;;
23260;SDS011;11799;47.740;-3.390;2023-08-17T01:31:23;2.58;;;1.55;;
23260;SDS011;11799;47.740;-3.390;2023-08-17T01:33:58;3.67;;;1.63;;
23260;SDS011;11799;47.740;-3.390;2023-08-17T01:36:37;3.03;;;1.45;;
23260;SDS011;11799;47.740;-3.390;2023-08-17T01:39:07;3.13;;;1.50;;
23260;SDS011;11799;47.740;-3.390;2023-08-17T01:41:34;1.85;;;1.58;;
23260;SDS011;11799;47.740;-3.390;2023-08-17T01:44:01;3.65;;;1.80;;
23260;SDS011;11799;47.740;-3.390;2023-08-17T01:46:30;1.95;;;1.45;;
23260;SDS011;11799;47.740;-3.390;2023-08-17T01:48:59;2.13;;;1.23;;
23260;SDS011;11799;47.740;-3.390;2023-08-17T01:51:25;2.28;;;1.42;;
23260;SDS011;11799;47.740;-3.390;2023-08-17T01:53:51;4.53;;;1.48;;
23260;SDS011;11799;47.740;-3.390;2023-08-17T01:56:17;3.40;;;1.73;;
23260;SDS011;11799;47.740;-3.390;2023-08-17T01:58:44;3.00;;;1.80;;
23260;SDS011;11799;47.740;-3.390;2023-08-17T02:01:09;3.78;;;1.50;;
23260;SDS011;11799;47.740;-3.390;2023-08-17T02:03:35;3.47;;;1.50;;
23260;SDS011;11799;47.740;-3.390;2023-08-17T02:06:00;2.63;;;1.70;;
23260;SDS011;11799;47.740;-3.390;2023-08-17T02:08:26;2.03;;;1.50;;
23260;SDS011;11799;47.740;-3.390;2023-08-17T02:10:52;2.63;;;1.50;;
23260;SDS011;11799;47.740;-3.390;2023-08-17T02:13:20;2.67;;;1.50;;
23260;SDS011;11799;47.740;-3.390;2023-08-17T02:15:46;1.80;;;1.42;;
23260;SDS011;11799;47.740;-3.390;2023-08-17T02:18:12;2.50;;;1.60;;
23260;SDS011;11799;47.740;-3.390;2023-08-17T02:20:37;3.10;;;1.40;;
23260;SDS011;11799;47.740;-3.390;2023-08-17T02:23:03;3.47;;;1.60;;
23260;SDS011;11799;47.740;-3.390;2023-08-17T02:25:29;3.30;;;1.90;;
23260;SDS011;11799;47.740;-3.390;2023-08-17T02:28:00;5.13;;;1.70;;
23260;SDS011;11799;47.740;-3.390;2023-08-17T02:30:27;2.17;;;1.88;;
23260;SDS011;11799;47.740;-3.390;2023-08-17T02:32:53;2.53;;;1.70;;
23260;SDS011;11799;47.740;-3.390;2023-08-17T02:35:18;2.20;;;1.52;;
23260;SDS011;11799;47.740;-3.390;2023-08-17T02:37:44;4.68;;;1.75;;
23260;SDS011;11799;47.740;-3.390;2023-08-17T02:40:09;3.38;;;1.50;;
23260;SDS011;11799;47.740;-3.390;2023-08-17T02:42:35;3.40;;;1.80;;
23260;SDS011;11799;47.740;-3.390;2023-08-17T02:45:01;2.90;;;1.65;;
23260;SDS011;11799;47.740;-3.390;2023-08-17T02:47:28;1.73;;;1.55;;
23260;SDS011;11799;47.740;-3.390;2023-08-17T02:49:53;3.05;;;1.80;;
23260;SDS011;11799;47.740;-3.390;2023-08-17T02:52:19;3.30;;;1.67;;
23260;SDS011;11799;47.740;-3.390;2023-08-17T02:54:44;5.53;;;1.75;;
23260;SDS011;11799;47.740;-3.390;2023-08-17T02:57:10;1.67;;;1.58;;
23260;SDS011;11799;47.740;-3.390;2023-08-17T02:59:36;1.65;;;1.55;;
23260;SDS011;11799;47.740;-3.390;2023-08-17T03:02:02;2.20;;;1.75;;
23260;SDS011;11799;47.740;-3.390;2023-08-17T03:04:27;3.10;;;1.65;;
23260;SDS011;11799;47.740;-3.390;2023-08-17T03:06:55;2.78;;;1.50;;
23260;SDS011;11799;47.740;-3.390;2023-08-17T03:09:20;2.10;;;1.80;;
23260;SDS011;11799;47.740;-3.390;2023-08-17T03:11:46;2.60;;;1.52;;
23260;SDS011;11799;47.740;-3.390;2023-08-17T03:14:11;2.72;;;1.58;;
23260;SDS011;11799;47.740;-3.390;2023-08-17T03:16:37;2.65;;;1.80;;
23260;SDS011;11799;47.740;-3.390;2023-08-17T03:19:03;4.68;;;1.83;;
23260;SDS011;11799;47.740;-3.390;2023-08-17T03:21:31;2.40;;;1.65;;
23260;SDS011;11799;47.740;-3.390;2023-08-17T03:23:56;2.13;;;1.85;;
23260;SDS011;11799;47.740;-3.390;2023-08-17T03:26:22;4.30;;;1.80;;
23260;SDS011;11799;47.740;-3.390;2023-08-17T03:28:48;3.17;;;1.75;;
23260;SDS011;11799;47.740;-3.390;2023-08-17T03:31:14;2.63;;;1.73;;
23260;SDS011;11799;47.740;-3.390;2023-08-17T03:33:39;1.95;;;1.70;;
23260;SDS011;11799;47.740;-3.390;2023-08-17T03:36:05;2.38;;;1.77;;
23260;SDS011;11799;47.740;-3.390;2023-08-17T03:38:31;2.30;;;1.67;;
23260;SDS011;11799;47.740;-3.390;2023-08-17T03:40:57;3.85;;;2.15;;
23260;SDS011;11799;47.740;-3.390;2023-08-17T03:43:22;2.28;;;1.63;;
23260;SDS011;11799;47.740;-3.390;2023-08-17T03:45:48;3.08;;;1.73;;
23260;SDS011;11799;47.740;-3.390;2023-08-17T03:48:14;3.40;;;1.80;;
23260;SDS011;11799;47.740;-3.390;2023-08-17T03:50:39;3.28;;;1.98;;
23260;SDS011;11799;47.740;-3.390;2023-08-17T03:53:05;2.20;;;1.88;;
23260;SDS011;11799;47.740;-3.390;2023-08-17T03:55:30;1.95;;;1.70;;
23260;SDS011;11799;47.740;-3.390;2023-08-17T03:57:56;6.03;;;1.92;;
23260;SDS011;11799;47.740;-3.390;2023-08-17T04:00:22;4.20;;;1.95;;
23260;SDS011;11799;47.740;-3.390;2023-08-17T04:02:54;3.60;;;2.10;;
23260;SDS011;11799;47.740;-3.390;2023-08-17T04:05:19;2.25;;;2.03;;
23260;SDS011;11799;47.740;-3.390;2023-08-17T04:07:45;3.13;;;1.92;;
23260;SDS011;11799;47.740;-3.390;2023-08-17T04:10:12;2.88;;;2.00;;
23260;SDS011;11799;47.740;-3.390;2023-08-17T04:12:38;3.30;;;1.70;;
23260;SDS011;11799;47.740;-3.390;2023-08-17T04:15:04;2.88;;;2.00;;
23260;SDS011;11799;47.740;-3.390;2023-08-17T04:17:30;1.92;;;1.73;;
23260;SDS011;11799;47.740;-3.390;2023-08-17T04:19:56;4.70;;;2.05;;
23260;SDS011;11799;47.740;-3.390;2023-08-17T04:22:21;1.85;;;1.73;;
23260;SDS011;11799;47.740;-3.390;2023-08-17T04:24:47;5.57;;;2.45;;
23260;SDS011;11799;47.740;-3.390;2023-08-17T04:27:12;2.63;;;1.80;;
23260;SDS011;11799;47.740;-3.390;2023-08-17T04:29:39;2.17;;;1.90;;
23260;SDS011;11799;47.740;-3.390;2023-08-17T04:32:06;2.58;;;1.88;;
23260;SDS011;11799;47.740;-3.390;2023-08-17T04:34:31;3.25;;;1.98;;
23260;SDS011;11799;47.740;-3.390;2023-08-17T04:36:57;3.65;;;2.05;;
23260;SDS011;11799;47.740;-3.390;2023-08-17T04:39:22;3.60;;;2.13;;
23260;SDS011;11799;47.740;-3.390;2023-08-17T04:41:49;2.25;;;2.05;;
23260;SDS011;11799;47.740;-3.390;2023-08-17T04:44:20;4.55;;;2.13;;
23260;SDS011;11799;47.740;-3.390;2023-08-17T04:46:45;2.38;;;1.80;;
23260;SDS011;11799;47.740;-3.390;2023-08-17T04:49:11;3.38;;;1.80;;
23260;SDS011;11799;47.740;-3.390;2023-08-17T04:51:36;3.20;;;1.70;;
23260;SDS011;11799;47.740;-3.390;2023-08-17T04:54:02;2.72;;;1.80;;
23260;SDS011;11799;47.740;-3.390;2023-08-17T04:56:28;4.47;;;1.60;;
23260;SDS011;11799;47.740;-3.390;2023-08-17T04:58:54;5.22;;;2.00;;
23260;SDS011;11799;47.740;-3.390;2023-08-17T05:01:19;2.25;;;1.80;;
23260;SDS011;11799;47.740;-3.390;2023-08-17T05:03:45;3.13;;;2.10;;
23260;SDS011;11799;47.740;-3.390;2023-08-17T05:06:11;4.13;;;2.10;;
23260;SDS011;11799;47.740;-3.390;2023-08-17T05:08:37;2.40;;;2.20;;
23260;SDS011;11799;47.740;-3.390;2023-08-17T05:11:02;3.50;;;2.10;;
23260;SDS011;11799;47.740;-3.390;2023-08-17T05:13:28;2.17;;;1.98;;
23260;SDS011;11799;47.740;-3.390;2023-08-17T05:15:57;3.63;;;2.25;;
23260;SDS011;11799;47.740;-3.390;2023-08-17T05:18:23;2.55;;;2.35;;
23260;SDS011;11799;47.740;-3.390;2023-08-17T05:20:48;4.07;;;2.33;;
23260;SDS011;11799;47.740;-3.390;2023-08-17T05:23:14;4.10;;;2.38;;
23260;SDS011;11799;47.740;-3.390;2023-08-17T05:25:40;2.95;;;2.20;;
23260;SDS011;11799;47.740;-3.390;2023-08-17T05:28:05;3.03;;;2.05;;
23260;SDS011;11799;47.740;-3.390;2023-08-17T05:30:32;2.95;;;2.47;;
23260;SDS011;11799;47.740;-3.390;2023-08-17T05:32:58;2.83;;;2.13;;
23260;SDS011;11799;47.740;-3.390;2023-08-17T05:35:24;4.05;;;2.80;;
23260;SDS011;11799;47.740;-3.390;2023-08-17T05:37:49;4.13;;;2.30;;
23260;SDS011;11799;47.740;-3.390;2023-08-17T05:40:15;2.95;;;2.30;;
23260;SDS011;11799;47.740;-3.390;2023-08-17T05:42:40;3.08;;;2.42;;
23260;SDS011;11799;47.740;-3.390;2023-08-17T05:45:06;2.78;;;2.47;;
23260;SDS011;11799;47.740;-3.390;2023-08-17T05:47:33;4.25;;;2.35;;
23260;SDS011;11799;47.740;-3.390;2023-08-17T05:49:58;3.38;;;2.40;;
23260;SDS011;11799;47.740;-3.390;2023-08-17T05:52:24;3.42;;;2.28;;
23260;SDS011;11799;47.740;-3.390;2023-08-17T05:54:49;3.90;;;2.20;;
23260;SDS011;11799;47.740;-3.390;2023-08-17T05:57:15;3.30;;;2.13;;
23260;SDS011;11799;47.740;-3.390;2023-08-17T05:59:40;3.80;;;2.13;;
23260;SDS011;11799;47.740;-3.390;2023-08-17T06:02:06;4.32;;;2.15;;
23260;SDS011;11799;47.740;-3.390;2023-08-17T06:04:31;8.43;;;2.78;;
23260;SDS011;11799;47.740;-3.390;2023-08-17T06:06:57;4.80;;;2.33;;
23260;SDS011;11799;47.740;-3.390;2023-08-17T06:09:22;2.20;;;2.00;;
23260;SDS011;11799;47.740;-3.390;2023-08-17T06:11:48;3.30;;;2.15;;
23260;SDS011;11799;47.740;-3.390;2023-08-17T06:14:14;2.65;;;2.28;;
23260;SDS011;11799;47.740;-3.390;2023-08-17T06:16:39;3.30;;;2.55;;
23260;SDS011;11799;47.740;-3.390;2023-08-17T06:19:05;4.07;;;2.13;;
23260;SDS011;11799;47.740;-3.390;2023-08-17T06:21:30;3.17;;;2.13;;
23260;SDS011;11799;47.740;-3.390;2023-08-17T06:23:56;4.80;;;2.13;;
23260;SDS011;11799;47.740;-3.390;2023-08-17T06:26:22;2.97;;;2.30;;
23260;SDS011;11799;47.740;-3.390;2023-08-17T06:28:47;3.10;;;2.20;;
23260;SDS011;11799;47.740;-3.390;2023-08-17T06:31:16;2.92;;;2.17;;
23260;SDS011;11799;47.740;-3.390;2023-08-17T06:33:41;2.65;;;1.88;;
23260;SDS011;11799;47.740;-3.390;2023-08-17T06:36:07;3.83;;;2.10;;
23260;SDS011;11799;47.740;-3.390;2023-08-17T06:38:33;4.95;;;2.10;;
23260;SDS011;11799;47.740;-3.390;2023-08-17T06:40:58;2.95;;;2.28;;
23260;SDS011;11799;47.740;-3.390;2023-08-17T06:43:24;3.33;;;2.55;;
23260;SDS011;11799;47.740;-3.390;2023-08-17T06:45:49;4.20;;;2.20;;
23260;SDS011;11799;47.740;-3.390;2023-08-17T06:48:15;3.63;;;2.30;;
23260;SDS011;11799;47.740;-3.390;2023-08-17T06:50:40;3.72;;;2.17;;
23260;SDS011;11799;47.740;-3.390;2023-08-17T06:53:07;5.20;;;2.30;;
23260;SDS011;11799;47.740;-3.390;2023-08-17T06:55:32;5.07;;;2.35;;
23260;SDS011;11799;47.740;-3.390;2023-08-17T06:57:58;3.72;;;2.10;;
23260;SDS011;11799;47.740;-3.390;2023-08-17T07:00:23;3.47;;;2.45;;
23260;SDS011;11799;47.740;-3.390;2023-08-17T07:02:49;3.00;;;2.03;;
23260;SDS011;11799;47.740;-3.390;2023-08-17T07:05:15;5.30;;;2.40;;
23260;SDS011;11799;47.740;-3.390;2023-08-17T07:07:41;2.95;;;2.00;;
23260;SDS011;11799;47.740;-3.390;2023-08-17T07:10:07;3.97;;;2.53;;
23260;SDS011;11799;47.740;-3.390;2023-08-17T07:12:33;4.68;;;2.38;;
23260;SDS011;11799;47.740;-3.390;2023-08-17T07:14:59;3.88;;;2.45;;
23260;SDS011;11799;47.740;-3.390;2023-08-17T07:17:25;7.32;;;2.42;;
23260;SDS011;11799;47.740;-3.390;2023-08-17T07:19:50;4.85;;;2.17;;
23260;SDS011;11799;47.740;-3.390;2023-08-17T07:22:16;2.70;;;1.95;;
23260;SDS011;11799;47.740;-3.390;2023-08-17T07:24:42;3.33;;;2.15;;
23260;SDS011;11799;47.740;-3.390;2023-08-17T07:27:07;3.42;;;2.03;;
23260;SDS011;11799;47.740;-3.390;2023-08-17T07:29:33;2.88;;;2.28;;
23260;SDS011;11799;47.740;-3.390;2023-08-17T07:31:58;6.03;;;2.40;;
23260;SDS011;11799;47.740;-3.390;2023-08-17T07:34:27;4.25;;;2.20;;
23260;SDS011;11799;47.740;-3.390;2023-08-17T07:36:55;3.83;;;2.17;;
23260;SDS011;11799;47.740;-3.390;2023-08-17T07:39:21;4.22;;;2.00;;
23260;SDS011;11799;47.740;-3.390;2023-08-17T07:41:46;2.30;;;1.83;;
23260;SDS011;11799;47.740;-3.390;2023-08-17T07:44:12;5.60;;;2.00;;
23260;SDS011;11799;47.740;-3.390;2023-08-17T07:46:37;4.75;;;1.98;;
23260;SDS011;11799;47.740;-3.390;2023-08-17T07:49:03;2.33;;;1.98;;
23260;SDS011;11799;47.740;-3.390;2023-08-17T07:51:29;2.53;;;2.10;;
23260;SDS011;11799;47.740;-3.390;2023-08-17T07:53:56;2.08;;;1.50;;
23260;SDS011;11799;47.740;-3.390;2023-08-17T07:56:22;4.15;;;2.10;;
23260;SDS011;11799;47.740;-3.390;2023-08-17T07:58:48;3.45;;;2.30;;
23260;SDS011;11799;47.740;-3.390;2023-08-17T08:01:14;3.03;;;1.88;;
23260;SDS011;11799;47.740;-3.390;2023-08-17T08:03:40;3.10;;;1.92;;
23260;SDS011;11799;47.740;-3.390;2023-08-17T08:06:05;1.83;;;1.55;;
23260;SDS011;11799;47.740;-3.390;2023-08-17T08:08:31;5.60;;;1.60;;
23260;SDS011;11799;47.740;-3.390;2023-08-17T08:10:56;4.53;;;2.08;;
23260;SDS011;11799;47.740;-3.390;2023-08-17T08:13:23;3.70;;;1.80;;
23260;SDS011;11799;47.740;-3.390;2023-08-17T08:15:49;3.10;;;1.98;;
23260;SDS011;11799;47.740;-3.390;2023-08-17T08:18:15;4.53;;;1.80;;
23260;SDS011;11799;47.740;-3.390;2023-08-17T08:20:40;2.50;;;1.80;;
23260;SDS011;11799;47.740;-3.390;2023-08-17T08:23:06;4.47;;;1.90;;
23260;SDS011;11799;47.740;-3.390;2023-08-17T08:25:31;4.93;;;1.73;;
23260;SDS011;11799;47.740;-3.390;2023-08-17T08:27:57;4.72;;;1.95;;
23260;SDS011;11799;47.740;-3.390;2023-08-17T08:30:22;4.38;;;1.83;;
23260;SDS011;11799;47.740;-3.390;2023-08-17T08:32:48;4.45;;;1.73;;
23260;SDS011;11799;47.740;-3.390;2023-08-17T08:35:13;4.13;;;2.03;;
23260;SDS011;11799;47.740;-3.390;2023-08-17T08:37:39;4.05;;;1.80;;
23260;SDS011;11799;47.740;-3.390;2023-08-17T08:40:05;4.03;;;2.00;;
23260;SDS011;11799;47.740;-3.390;2023-08-17T08:42:37;3.92;;;1.80;;
23260;SDS011;11799;47.740;-3.390;2023-08-17T08:45:03;3.78;;;1.80;;
23260;SDS011;11799;47.740;-3.390;2023-08-17T08:47:29;2.72;;;1.80;;
23260;SDS011;11799;47.740;-3.390;2023-08-17T08:49:59;6.05;;;2.17;;
23260;SDS011;11799;47.740;-3.390;2023-08-17T08:52:33;4.00;;;1.73;;
23260;SDS011;11799;47.740;-3.390;2023-08-17T08:55:34;4.03;;;1.80;;
23260;SDS011;11799;47.740;-3.390;2023-08-17T08:57:54;8.18;;;2.33;;
23260;SDS011;11799;47.740;-3.390;2023-08-17T09:00:21;3.33;;;2.10;;
23260;SDS011;11799;47.740;-3.390;2023-08-17T09:02:48;7.28;;;2.55;;
23260;SDS011;11799;47.740;-3.390;2023-08-17T09:05:14;4.75;;;2.10;;
23260;SDS011;11799;47.740;-3.390;2023-08-17T09:07:40;3.70;;;2.25;;
23260;SDS011;11799;47.740;-3.390;2023-08-17T09:10:08;5.78;;;2.40;;
23260;SDS011;11799;47.740;-3.390;2023-08-17T09:12:35;4.57;;;2.17;;
23260;SDS011;11799;47.740;-3.390;2023-08-17T09:15:00;5.93;;;2.22;;
23260;SDS011;11799;47.740;-3.390;2023-08-17T09:17:26;3.00;;;2.13;;
23260;SDS011;11799;47.740;-3.390;2023-08-17T09:19:53;4.53;;;2.65;;
23260;SDS011;11799;47.740;-3.390;2023-08-17T09:22:52;2.72;;;2.20;;
23260;SDS011;11799;47.740;-3.390;2023-08-17T09:25:11;4.75;;;2.10;;
23260;SDS011;11799;47.740;-3.390;2023-08-17T09:27:47;2.72;;;1.92;;
23260;SDS011;11799;47.740;-3.390;2023-08-17T09:30:12;2.30;;;1.92;;
23260;SDS011;11799;47.740;-3.390;2023-08-17T09:32:38;2.03;;;1.90;;
23260;SDS011;11799;47.740;-3.390;2023-08-17T09:35:04;3.50;;;2.17;;
23260;SDS011;11799;47.740;-3.390;2023-08-17T09:37:31;2.30;;;1.85;;
23260;SDS011;11799;47.740;-3.390;2023-08-17T09:39:57;4.72;;;2.25;;
23260;SDS011;11799;47.740;-3.390;2023-08-17T09:42:23;4.50;;;2.50;;
23260;SDS011;11799;47.740;-3.390;2023-08-17T09:44:51;5.78;;;2.20;;
23260;SDS011;11799;47.740;-3.390;2023-08-17T09:47:17;7.65;;;2.40;;
23260;SDS011;11799;47.740;-3.390;2023-08-17T09:49:52;2.95;;;2.10;;
23260;SDS011;11799;47.740;-3.390;2023-08-17T09:52:19;4.35;;;2.70;;
23260;SDS011;11799;47.740;-3.390;2023-08-17T09:54:46;5.30;;;2.38;;
23260;SDS011;11799;47.740;-3.390;2023-08-17T09:57:12;5.63;;;2.40;;
23260;SDS011;11799;47.740;-3.390;2023-08-17T09:59:39;4.05;;;2.50;;
23260;SDS011;11799;47.740;-3.390;2023-08-17T10:02:05;3.28;;;2.08;;
23260;SDS011;11799;47.740;-3.390;2023-08-17T10:04:42;4.05;;;2.42;;
23260;SDS011;11799;47.740;-3.390;2023-08-17T10:07:09;5.80;;;2.58;;
23260;SDS011;11799;47.740;-3.390;2023-08-17T10:09:39;4.20;;;2.38;;
23260;SDS011;11799;47.740;-3.390;2023-08-17T10:12:10;3.95;;;2.40;;
23260;SDS011;11799;47.740;-3.390;2023-08-17T10:14:39;3.55;;;2.22;;
23260;SDS011;11799;47.740;-3.390;2023-08-17T10:17:11;3.08;;;2.30;;
23260;SDS011;11799;47.740;-3.390;2023-08-17T10:19:43;3.28;;;2.30;;
23260;SDS011;11799;47.740;-3.390;2023-08-17T10:22:22;4.07;;;2.45;;
23260;SDS011;11799;47.740;-3.390;2023-08-17T10:24:55;3.35;;;2.10;;
23260;SDS011;11799;47.740;-3.390;2023-08-17T10:27:22;6.35;;;2.78;;
23260;SDS011;11799;47.740;-3.390;2023-08-17T10:29:47;3.90;;;2.47;;
23260;SDS011;11799;47.740;-3.390;2023-08-17T10:32:16;3.88;;;2.50;;
23260;SDS011;11799;47.740;-3.390;2023-08-17T10:34:42;6.90;;;2.60;;
23260;SDS011;11799;47.740;-3.390;2023-08-17T10:37:08;5.00;;;2.40;;
23260;SDS011;11799;47.740;-3.390;2023-08-17T10:39:34;6.40;;;2.47;;
23260;SDS011;11799;47.740;-3.390;2023-08-17T10:42:02;4.63;;;2.40;;
23260;SDS011;11799;47.740;-3.390;2023-08-17T10:47:19;4.63;;;2.20;;
23260;SDS011;11799;47.740;-3.390;2023-08-17T10:49:47;5.55;;;2.35;;
23260;SDS011;11799;47.740;-3.390;2023-08-17T10:52:24;4.07;;;2.80;;
23260;SDS011;11799;47.740;-3.390;2023-08-17T10:55:04;4.35;;;2.45;;
23260;SDS011;11799;47.740;-3.390;2023-08-17T10:57:39;7.15;;;2.72;;
23260;SDS011;11799;47.740;-3.390;2023-08-17T11:02:37;4.93;;;2.55;;
23260;SDS011;11799;47.740;-3.390;2023-08-17T11:05:03;4.75;;;2.53;;
23260;SDS011;11799;47.740;-3.390;2023-08-17T11:07:44;4.00;;;2.60;;
23260;SDS011;11799;47.740;-3.390;2023-08-17T11:10:11;3.38;;;2.30;;
23260;SDS011;11799;47.740;-3.390;2023-08-17T11:12:45;3.38;;;2.42;;
23260;SDS011;11799;47.740;-3.390;2023-08-17T11:15:11;3.40;;;2.30;;
23260;SDS011;11799;47.740;-3.390;2023-08-17T11:17:36;5.55;;;2.72;;
23260;SDS011;11799;47.740;-3.390;2023-08-17T11:20:03;5.20;;;2.47;;
23260;SDS011;11799;47.740;-3.390;2023-08-17T11:22:29;6.38;;;3.00;;
23260;SDS011;11799;47.740;-3.390;2023-08-17T11:24:55;4.97;;;2.30;;
23260;SDS011;11799;47.740;-3.390;2023-08-17T11:27:21;4.20;;;2.40;;
23260;SDS011;11799;47.740;-3.390;2023-08-17T11:29:46;4.40;;;2.38;;
23260;SDS011;11799;47.740;-3.390;2023-08-17T11:32:15;3.42;;;2.45;;
23260;SDS011;11799;47.740;-3.390;2023-08-17T11:34:42;5.53;;;2.30;;
23260;SDS011;11799;47.740;-3.390;2023-08-17T11:37:07;3.83;;;2.30;;
23260;SDS011;11799;47.740;-3.390;2023-08-17T11:39:33;5.55;;;2.10;;
23260;SDS011;11799;47.740;-3.390;2023-08-17T11:42:00;7.07;;;2.40;;
23260;SDS011;11799;47.740;-3.390;2023-08-17T11:44:25;5.70;;;2.47;;
23260;SDS011;11799;47.740;-3.390;2023-08-17T11:46:51;4.88;;;2.20;;
23260;SDS011;11799;47.740;-3.390;2023-08-17T11:49:17;4.13;;;2.75;;
23260;SDS011;11799;47.740;-3.390;2023-08-17T11:51:42;4.63;;;2.75;;
23260;SDS011;11799;47.740;-3.390;2023-08-17T11:54:08;4.05;;;2.25;;
23260;SDS011;11799;47.740;-3.390;2023-08-17T11:56:34;2.95;;;2.20;;
23260;SDS011;11799;47.740;-3.390;2023-08-17T11:59:07;3.28;;;2.17;;
23260;SDS011;11799;47.740;-3.390;2023-08-17T12:01:36;6.03;;;2.83;;
23260;SDS011;11799;47.740;-3.390;2023-08-17T12:04:06;4.18;;;2.50;;
23260;SDS011;11799;47.740;-3.390;2023-08-17T12:06:31;3.35;;;2.28;;
23260;SDS011;11799;47.740;-3.390;2023-08-17T12:08:57;5.25;;;2.00;;
23260;SDS011;11799;47.740;-3.390;2023-08-17T12:11:23;5.93;;;2.30;;
23260;SDS011;11799;47.740;-3.390;2023-08-17T12:13:53;3.60;;;2.00;;
23260;SDS011;11799;47.740;-3.390;2023-08-17T12:16:19;5.18;;;2.40;;
23260;SDS011;11799;47.740;-3.390;2023-08-17T12:18:52;4.80;;;2.20;;
23260;SDS011;11799;47.740;-3.390;2023-08-17T12:21:24;4.70;;;2.28;;
23260;SDS011;11799;47.740;-3.390;2023-08-17T12:23:49;3.72;;;1.98;;
23260;SDS011;11799;47.740;-3.390;2023-08-17T12:26:18;3.50;;;2.40;;
23260;SDS011;11799;47.740;-3.390;2023-08-17T12:28:45;3.20;;;2.40;;
23260;SDS011;11799;47.740;-3.390;2023-08-17T12:31:10;4.20;;;2.40;;
23260;SDS011;11799;47.740;-3.390;2023-08-17T12:33:36;3.10;;;2.10;;
23260;SDS011;11799;47.740;-3.390;2023-08-17T12:36:01;3.83;;;2.13;;
23260;SDS011;11799;47.740;-3.390;2023-08-17T12:38:27;2.60;;;2.03;;
23260;SDS011;11799;47.740;-3.390;2023-08-17T12:40:53;2.00;;;1.77;;
23260;SDS011;11799;47.740;-3.390;2023-08-17T12:43:19;2.45;;;1.95;;
23260;SDS011;11799;47.740;-3.390;2023-08-17T12:45:44;3.75;;;2.20;;
23260;SDS011;11799;47.740;-3.390;2023-08-17T12:48:10;3.15;;;2.10;;
23260;SDS011;11799;47.740;-3.390;2023-08-17T12:50:35;2.63;;;1.85;;
23260;SDS011;11799;47.740;-3.390;2023-08-17T12:53:01;2.67;;;2.10;;
23260;SDS011;11799;47.740;-3.390;2023-08-17T12:55:26;5.00;;;1.90;;
23260;SDS011;11799;47.740;-3.390;2023-08-17T12:57:52;4.57;;;2.00;;
23260;SDS011;11799;47.740;-3.390;2023-08-17T13:00:18;3.60;;;1.75;;
23260;SDS011;11799;47.740;-3.390;2023-08-17T13:02:43;3.78;;;1.90;;
23260;SDS011;11799;47.740;-3.390;2023-08-17T13:05:11;2.70;;;1.90;;
23260;SDS011;11799;47.740;-3.390;2023-08-17T13:07:37;2.67;;;2.17;;
23260;SDS011;11799;47.740;-3.390;2023-08-17T13:10:02;2.22;;;1.90;;
23260;SDS011;11799;47.740;-3.390;2023-08-17T13:12:28;4.60;;;2.17;;
23260;SDS011;11799;47.740;-3.390;2023-08-17T13:14:54;1.90;;;1.63;;
23260;SDS011;11799;47.740;-3.390;2023-08-17T13:17:19;3.88;;;1.73;;
23260;SDS011;11799;47.740;-3.390;2023-08-17T13:19:45;3.58;;;1.90;;
23260;SDS011;11799;47.740;-3.390;2023-08-17T13:22:10;3.33;;;1.80;;
23260;SDS011;11799;47.740;-3.390;2023-08-17T13:24:36;3.33;;;1.70;;
23260;SDS011;11799;47.740;-3.390;2023-08-17T13:27:01;3.42;;;1.80;;
23260;SDS011;11799;47.740;-3.390;2023-08-17T13:29:27;4.68;;;1.77;;
23260;SDS011;11799;47.740;-3.390;2023-08-17T13:31:53;2.78;;;1.67;;
23260;SDS011;11799;47.740;-3.390;2023-08-17T13:34:18;5.35;;;1.75;;
23260;SDS011;11799;47.740;-3.390;2023-08-17T13:36:44;4.90;;;1.75;;
23260;SDS011;11799;47.740;-3.390;2023-08-17T13:39:09;5.03;;;1.90;;
23260;SDS011;11799;47.740;-3.390;2023-08-17T13:41:35;3.05;;;1.70;;
23260;SDS011;11799;47.740;-3.390;2023-08-17T13:44:01;2.95;;;1.83;;
23260;SDS011;11799;47.740;-3.390;2023-08-17T13:46:27;2.63;;;1.90;;
23260;SDS011;11799;47.740;-3.390;2023-08-17T13:48:53;2.58;;;1.70;;
23260;SDS011;11799;47.740;-3.390;2023-08-17T13:51:19;3.45;;;1.67;;
23260;SDS011;11799;47.740;-3.390;2023-08-17T13:53:44;4.15;;;1.85;;
23260;SDS011;11799;47.740;-3.390;2023-08-17T13:56:10;2.35;;;1.60;;
23260;SDS011;11799;47.740;-3.390;2023-08-17T13:58:36;3.53;;;1.65;;
23260;SDS011;11799;47.740;-3.390;2023-08-17T14:01:01;3.00;;;1.70;;
23260;SDS011;11799;47.740;-3.390;2023-08-17T14:03:27;2.75;;;1.90;;
23260;SDS011;11799;47.740;-3.390;2023-08-17T14:05:53;2.53;;;1.70;;
23260;SDS011;11799;47.740;-3.390;2023-08-17T14:08:18;4.47;;;1.80;;
23260;SDS011;11799;47.740;-3.390;2023-08-17T14:10:44;3.40;;;1.80;;
23260;SDS011;11799;47.740;-3.390;2023-08-17T14:13:09;1.98;;;1.60;;
23260;SDS011;11799;47.740;-3.390;2023-08-17T14:15:35;3.72;;;1.83;;
23260;SDS011;11799;47.740;-3.390;2023-08-17T14:18:00;4.70;;;2.05;;
23260;SDS011;11799;47.740;-3.390;2023-08-17T14:20:26;5.13;;;2.15;;
23260;SDS011;11799;47.740;-3.390;2023-08-17T14:22:52;5.30;;;2.33;;
23260;SDS011;11799;47.740;-3.390;2023-08-17T14:25:17;2.13;;;1.65;;
23260;SDS011;11799;47.740;-3.390;2023-08-17T14:27:43;3.00;;;1.65;;
23260;SDS011;11799;47.740;-3.390;2023-08-17T14:30:08;4.00;;;1.65;;
23260;SDS011;11799;47.740;-3.390;2023-08-17T14:32:34;4.05;;;1.58;;
23260;SDS011;11799;47.740;-3.390;2023-08-17T14:34:59;2.88;;;1.60;;
23260;SDS011;11799;47.740;-3.390;2023-08-17T14:37:25;3.47;;;1.60;;